Time;durP1;ratioP1;P1;durP2;ratioP2;P2;SDS_P1;SDS_P2;PMS_P1;PMS_P2;Temp;Humidity;BMP_temperature;BMP_pressure;BME280_temperature;BME280_humidity;BME280_pressure;Samples;Min_cycle;Max_cycle;Signal;HPM_P1;HPM_P2
2022/08/19 00:01:34;;;;;;;;;;;21.20;99.90;;;;;;5106217;28;19983;-67
2022/08/19 00:04:01;;;;;;;;;;;21.20;99.90;;;;;;5105291;28;19955;-68
2022/08/19 00:06:29;;;;;;;;;;;21.20;99.90;;;;;;5105459;28;20173;-67
2022/08/19 00:08:56;;;;;;;;;;;21.10;99.90;;;;;;5105677;28;19982;-67
2022/08/19 00:11:22;;;;;;;;;;;21.10;99.90;;;;;;5105558;28;19924;-67
2022/08/19 00:13:50;;;;;;;;;;;21.10;99.90;;;;;;5105129;28;19920;-67
2022/08/19 00:16:20;;;;;;;;;;;21.10;99.90;;;;;;5105157;28;19975;-68
2022/08/19 00:18:47;;;;;;;;;;;21.10;99.90;;;;;;5105646;28;19924;-67
2022/08/19 00:21:14;;;;;;;;;;;21.10;99.90;;;;;;5105374;28;20170;-67
2022/08/19 00:23:40;;;;;;;;;;;21.00;99.90;;;;;;5105334;28;19920;-67
2022/08/19 00:26:07;;;;;;;;;;;21.00;99.90;;;;;;5105065;28;20211;-67
2022/08/19 00:28:35;;;;;;;;;;;20.90;99.90;;;;;;5105043;28;19958;-67
2022/08/19 00:31:04;;;;;;;;;;;20.90;99.90;;;;;;5105266;28;19920;-67
2022/08/19 00:33:31;;;;;;;;;;;20.90;99.90;;;;;;5104791;28;19955;-67
2022/08/19 00:35:58;;;;;;;;;;;20.80;99.90;;;;;;5104886;28;19926;-67
2022/08/19 00:38:24;;;;;;;;;;;20.80;99.90;;;;;;5105081;28;19955;-67
2022/08/19 00:40:51;;;;;;;;;;;20.70;99.90;;;;;;5104929;28;19983;-68
2022/08/19 00:43:20;;;;;;;;;;;20.70;99.90;;;;;;5104681;28;19982;-67
2022/08/19 00:45:47;;;;;;;;;;;20.70;99.90;;;;;;5104924;28;19983;-67
2022/08/19 00:48:16;;;;;;;;;;;20.70;99.90;;;;;;5105184;28;20176;-67
2022/08/19 00:50:43;;;;;;;;;;;20.70;99.90;;;;;;5104762;28;19921;-67
2022/08/19 00:53:10;;;;;;;;;;;20.60;99.90;;;;;;5104502;28;19920;-67
2022/08/19 00:55:38;;;;;;;;;;;20.60;99.90;;;;;;5104397;28;20092;-68
2022/08/19 00:58:09;;;;;;;;;;;20.60;99.90;;;;;;5104838;28;19988;-67
2022/08/19 01:00:36;;;;;;;;;;;20.60;99.90;;;;;;5104543;28;20009;-67
2022/08/19 01:03:03;;;;;;;;;;;20.60;99.90;;;;;;5104394;28;19923;-67
2022/08/19 01:05:31;;;;;;;;;;;20.60;99.90;;;;;;5104461;28;19928;-68
2022/08/19 01:08:00;;;;;;;;;;;20.60;99.90;;;;;;5103671;28;19976;-67
2022/08/19 01:10:28;;;;;;;;;;;20.60;99.90;;;;;;5104304;28;19963;-67
2022/08/19 01:12:55;;;;;;;;;;;20.60;99.90;;;;;;5104241;28;19951;-67
2022/08/19 01:15:24;;;;;;;;;;;20.60;99.90;;;;;;5104267;28;19920;-67
2022/08/19 01:17:51;;;;;;;;;;;20.60;99.90;;;;;;5104330;28;19983;-67
2022/08/19 01:20:21;;;;;;;;;;;20.60;99.90;;;;;;5104158;28;19955;-67
2022/08/19 01:22:50;;;;;;;;;;;20.60;99.90;;;;;;5103810;28;20115;-67
2022/08/19 01:25:18;;;;;;;;;;;20.60;99.90;;;;;;5103983;28;19995;-67
2022/08/19 01:27:47;;;;;;;;;;;20.60;99.90;;;;;;5104179;28;19927;-67
2022/08/19 01:30:15;;;;;;;;;;;20.60;99.90;;;;;;5103465;28;19926;-67
2022/08/19 01:32:43;;;;;;;;;;;20.50;99.90;;;;;;5103676;28;19920;-67
2022/08/19 01:35:10;;;;;;;;;;;20.60;99.90;;;;;;5103810;28;20254;-68
2022/08/19 01:37:44;;;;;;;;;;;20.60;99.90;;;;;;5104224;28;19920;-68
2022/08/19 01:40:12;;;;;;;;;;;20.50;99.90;;;;;;5103850;28;19964;-68
2022/08/19 01:42:41;;;;;;;;;;;20.60;99.90;;;;;;5103757;28;19920;-67
2022/08/19 01:45:08;;;;;;;;;;;20.60;99.90;;;;;;5103650;28;19966;-67
2022/08/19 01:47:35;;;;;;;;;;;20.50;99.90;;;;;;5103793;28;19990;-67
2022/08/19 01:50:01;;;;;;;;;;;20.60;99.90;;;;;;5103623;28;20168;-67
2022/08/19 01:52:28;;;;;;;;;;;20.60;99.90;;;;;;5103825;28;20160;-67
2022/08/19 01:54:55;;;;;;;;;;;20.60;99.90;;;;;;5103576;28;19942;-67
2022/08/19 01:57:23;;;;;;;;;;;20.60;99.90;;;;;;5103737;28;19994;-67
2022/08/19 01:59:50;;;;;;;;;;;20.60;99.90;;;;;;5103641;28;19956;-67
2022/08/19 02:02:16;;;;;;;;;;;20.60;99.90;;;;;;5103451;28;20204;-67
2022/08/19 02:04:43;;;;;;;;;;;20.60;99.90;;;;;;5103178;28;20204;-67
2022/08/19 02:07:10;;;;;;;;;;;20.60;99.90;;;;;;5103670;28;20124;-67
2022/08/19 02:09:36;;;;;;;;;;;20.60;99.90;;;;;;5103491;28;19956;-67
2022/08/19 02:12:03;;;;;;;;;;;20.50;99.90;;;;;;5103594;28;19992;-67
2022/08/19 02:14:31;;;;;;;;;;;20.50;99.90;;;;;;5103114;28;19920;-67
2022/08/19 02:16:58;;;;;;;;;;;20.50;99.90;;;;;;5103236;28;19927;-67
2022/08/19 02:19:25;;;;;;;;;;;20.40;99.90;;;;;;5103578;28;19974;-67
2022/08/19 02:21:52;;;;;;;;;;;20.40;99.90;;;;;;5103282;28;20333;-67
2022/08/19 02:24:18;;;;;;;;;;;20.40;99.90;;;;;;5102909;28;19983;-67
2022/08/19 02:26:45;;;;;;;;;;;20.40;99.90;;;;;;5103312;28;19987;-67
2022/08/19 02:29:11;;;;;;;;;;;20.30;99.90;;;;;;5103222;28;19988;-67
2022/08/19 02:31:40;;;;;;;;;;;20.30;99.90;;;;;;5103285;28;19926;-67
2022/08/19 02:34:07;;;;;;;;;;;20.30;99.90;;;;;;5103131;28;20154;-68
2022/08/19 02:36:33;;;;;;;;;;;20.20;99.90;;;;;;5103250;28;19958;-67
2022/08/19 02:38:59;;;;;;;;;;;20.20;99.90;;;;;;5103330;28;19921;-67
2022/08/19 02:41:27;;;;;;;;;;;20.10;99.90;;;;;;5106920;28;19923;-67
2022/08/19 02:43:53;;;;;;;;;;;20.10;99.90;;;;;;5106897;28;19920;-67
2022/08/19 02:46:22;;;;;;;;;;;20.20;99.90;;;;;;5107305;28;19999;-67
2022/08/19 02:48:51;;;;;;;;;;;20.10;99.90;;;;;;5107254;28;20092;-67
2022/08/19 02:51:20;;;;;;;;;;;20.10;99.90;;;;;;5107077;28;19963;-67
2022/08/19 02:53:47;;;;;;;;;;;20.10;99.90;;;;;;5106774;28;19987;-67
2022/08/19 02:56:13;;;;;;;;;;;20.20;99.90;;;;;;5106952;28;19951;-67
2022/08/19 02:58:40;;;;;;;;;;;20.10;99.90;;;;;;5106868;28;20211;-67
2022/08/19 03:01:07;;;;;;;;;;;20.10;99.90;;;;;;5107136;28;19959;-67
2022/08/19 03:03:34;;;;;;;;;;;20.10;99.90;;;;;;5106702;28;19991;-67
2022/08/19 03:06:06;;;;;;;;;;;20.10;99.90;;;;;;5106704;28;19920;-67
2022/08/19 03:08:33;;;;;;;;;;;20.10;99.90;;;;;;5106803;28;19921;-67
2022/08/19 03:10:59;;;;;;;;;;;20.10;99.90;;;;;;5106479;28;19995;-67
2022/08/19 03:13:26;;;;;;;;;;;20.00;99.90;;;;;;5106739;28;19951;-67
2022/08/19 03:15:53;;;;;;;;;;;20.00;99.90;;;;;;5106483;28;19920;-68
2022/08/19 03:18:19;;;;;;;;;;;20.00;99.90;;;;;;5106631;28;19920;-67
2022/08/19 03:20:48;;;;;;;;;;;20.00;99.90;;;;;;5106546;28;19920;-67
2022/08/19 03:23:16;;;;;;;;;;;20.00;99.90;;;;;;5106202;28;19959;-67
2022/08/19 03:25:45;;;;;;;;;;;20.00;99.90;;;;;;5106526;28;19983;-67
2022/08/19 03:28:12;;;;;;;;;;;20.00;99.90;;;;;;5106690;28;19978;-67
2022/08/19 03:30:39;;;;;;;;;;;20.10;99.90;;;;;;5106147;28;20010;-68
2022/08/19 03:33:06;;;;;;;;;;;20.00;99.90;;;;;;5105946;28;19926;-67
2022/08/19 03:35:32;;;;;;;;;;;20.00;99.90;;;;;;5106318;28;19920;-67
2022/08/19 03:37:59;;;;;;;;;;;20.00;99.90;;;;;;5106134;28;20207;-67
2022/08/19 03:40:29;;;;;;;;;;;20.00;99.90;;;;;;5106370;28;19920;-67
2022/08/19 03:42:56;;;;;;;;;;;20.00;99.90;;;;;;5106070;28;20171;-67
2022/08/19 03:45:23;;;;;;;;;;;20.00;99.90;;;;;;5106089;28;20186;-68
2022/08/19 03:50:49;;;;;;;;;;;19.90;99.90;;;;;;5067689;28;19958;-67
2022/08/19 03:53:16;;;;;;;;;;;19.90;99.90;;;;;;5105407;28;19965;-68
2022/08/19 03:55:44;;;;;;;;;;;19.90;99.90;;;;;;5106003;28;19920;-67
2022/08/19 03:58:11;;;;;;;;;;;20.00;99.90;;;;;;5105949;28;19988;-68
2022/08/19 04:00:37;;;;;;;;;;;19.90;99.90;;;;;;5105825;28;20212;-68
2022/08/19 04:03:04;;;;;;;;;;;20.00;99.90;;;;;;5105313;28;19981;-67
2022/08/19 04:05:31;;;;;;;;;;;19.90;99.90;;;;;;5105592;28;19964;-68
2022/08/19 04:07:58;;;;;;;;;;;19.90;99.90;;;;;;5105615;28;19920;-67
2022/08/19 04:10:25;;;;;;;;;;;19.90;99.90;;;;;;5105450;28;19978;-68
2022/08/19 04:12:53;;;;;;;;;;;19.90;99.90;;;;;;5105401;28;19920;-67
2022/08/19 04:15:20;;;;;;;;;;;19.90;99.90;;;;;;5105513;28;19920;-68
2022/08/19 04:17:47;;;;;;;;;;;20.00;99.90;;;;;;5105293;28;19920;-67
2022/08/19 04:20:14;;;;;;;;;;;19.90;99.90;;;;;;5105590;28;19931;-68
2022/08/19 04:22:40;;;;;;;;;;;19.90;99.90;;;;;;5105234;28;19920;-68
2022/08/19 04:25:07;;;;;;;;;;;19.90;99.90;;;;;;5105207;28;19983;-68
2022/08/19 04:27:34;;;;;;;;;;;19.90;99.90;;;;;;5105267;28;19959;-68
2022/08/19 04:30:02;;;;;;;;;;;19.80;99.90;;;;;;5105106;28;19927;-68
2022/08/19 04:32:29;;;;;;;;;;;19.80;99.90;;;;;;5104900;28;19920;-68
2022/08/19 04:34:56;;;;;;;;;;;19.80;99.90;;;;;;5104746;28;19958;-67
2022/08/19 04:37:24;;;;;;;;;;;19.80;99.90;;;;;;5104987;28;19991;-67
2022/08/19 04:42:41;;;;;;;;;;;19.80;99.90;;;;;;5104821;28;20234;-68
2022/08/19 04:45:10;;;;;;;;;;;19.80;99.90;;;;;;5104871;28;19988;-68
2022/08/19 04:47:37;;;;;;;;;;;19.80;99.90;;;;;;5104945;28;19920;-68
2022/08/19 04:50:04;;;;;;;;;;;19.80;99.90;;;;;;5104759;28;19956;-68
2022/08/19 04:52:31;;;;;;;;;;;19.80;99.90;;;;;;5104541;28;19963;-68
2022/08/19 04:54:58;;;;;;;;;;;19.80;99.90;;;;;;5104373;28;19927;-68
2022/08/19 04:57:25;;;;;;;;;;;19.90;99.90;;;;;;5104607;28;19995;-68
2022/08/19 04:59:54;;;;;;;;;;;19.80;99.90;;;;;;5104854;28;19920;-68
2022/08/19 05:02:25;;;;;;;;;;;19.90;99.90;;;;;;5104647;28;19963;-68
2022/08/19 05:04:51;;;;;;;;;;;19.90;99.90;;;;;;5103653;28;19920;-68
2022/08/19 05:07:18;;;;;;;;;;;19.90;99.90;;;;;;5104374;28;19984;-68
2022/08/19 05:09:45;;;;;;;;;;;19.90;99.90;;;;;;5104421;28;20178;-68
2022/08/19 05:12:11;;;;;;;;;;;19.90;99.90;;;;;;5104419;28;19929;-68
2022/08/19 05:14:38;;;;;;;;;;;19.90;99.90;;;;;;5103980;28;19954;-68
2022/08/19 05:17:05;;;;;;;;;;;19.90;99.90;;;;;;5104261;28;20272;-68
2022/08/19 05:24:57;;;;;;;;;;;19.90;99.90;;;;;;5101944;28;19923;-68
2022/08/19 05:27:24;;;;;;;;;;;19.90;99.90;;;;;;5104360;28;20099;-68
2022/08/19 05:29:51;;;;;;;;;;;19.90;99.90;;;;;;5104059;28;20179;-68
2022/08/19 05:32:17;;;;;;;;;;;19.90;99.90;;;;;;5104189;28;19986;-68
2022/08/19 05:34:45;;;;;;;;;;;20.00;99.90;;;;;;5103424;28;19987;-68
2022/08/19 05:37:12;;;;;;;;;;;19.90;99.90;;;;;;5103808;28;19983;-68
2022/08/19 05:39:40;;;;;;;;;;;19.90;99.90;;;;;;5104089;28;19996;-68
2022/08/19 05:42:07;;;;;;;;;;;19.90;99.90;;;;;;5103721;28;19920;-68
2022/08/19 05:44:35;;;;;;;;;;;19.90;99.90;;;;;;5103562;28;19983;-68
2022/08/19 05:47:02;;;;;;;;;;;20.00;99.90;;;;;;5103706;28;19955;-68
2022/08/19 05:49:29;;;;;;;;;;;19.90;99.90;;;;;;5104009;28;19958;-68
2022/08/19 05:51:59;;;;;;;;;;;19.90;99.90;;;;;;5103740;28;20160;-68
2022/08/19 05:54:26;;;;;;;;;;;19.90;99.90;;;;;;5103356;28;19958;-68
2022/08/19 05:56:53;;;;;;;;;;;19.90;99.90;;;;;;5103489;28;19920;-68
2022/08/19 05:59:21;;;;;;;;;;;19.90;99.90;;;;;;5103648;28;20223;-68
2022/08/19 06:01:50;;;;;;;;;;;19.90;99.90;;;;;;5103402;28;19920;-68
2022/08/19 06:04:18;;;;;;;;;;;20.00;99.90;;;;;;5103396;28;19920;-68
2022/08/19 06:06:45;;;;;;;;;;;20.00;99.90;;;;;;5103457;28;19943;-68
2022/08/19 06:09:13;;;;;;;;;;;20.00;99.90;;;;;;5103551;28;19923;-68
2022/08/19 06:11:42;;;;;;;;;;;19.90;99.90;;;;;;5103341;28;20011;-68
2022/08/19 06:14:11;;;;;;;;;;;20.00;99.90;;;;;;5103130;28;20100;-68
2022/08/19 06:16:38;;;;;;;;;;;20.00;99.90;;;;;;5103120;28;20004;-68
2022/08/19 06:19:07;;;;;;;;;;;20.00;99.90;;;;;;5103654;28;19920;-68
2022/08/19 06:21:34;;;;;;;;;;;20.00;99.90;;;;;;5103587;28;19920;-68
2022/08/19 06:24:02;;;;;;;;;;;20.00;99.90;;;;;;5103014;28;19920;-68
2022/08/19 06:26:30;;;;;;;;;;;20.00;99.90;;;;;;5103299;28;20235;-68
2022/08/19 06:28:56;;;;;;;;;;;20.00;99.90;;;;;;5103188;28;19927;-68
2022/08/19 06:31:24;;;;;;;;;;;20.10;99.90;;;;;;5103162;28;19966;-68
2022/08/19 06:33:51;;;;;;;;;;;20.10;99.90;;;;;;5103189;28;19927;-68
2022/08/19 06:36:18;;;;;;;;;;;20.10;99.90;;;;;;5103231;28;19920;-68
2022/08/19 06:38:45;;;;;;;;;;;20.10;99.90;;;;;;5103428;28;19983;-68
2022/08/19 06:41:12;;;;;;;;;;;20.10;99.90;;;;;;5103077;28;19955;-68
2022/08/19 06:43:41;;;;;;;;;;;20.10;99.90;;;;;;5102689;28;19952;-68
2022/08/19 06:46:11;;;;;;;;;;;20.10;99.90;;;;;;5103168;28;19920;-68
2022/08/19 06:48:38;;;;;;;;;;;20.10;99.90;;;;;;5103078;28;19920;-68
2022/08/19 06:51:05;;;;;;;;;;;20.10;99.90;;;;;;5103257;28;19951;-68
2022/08/19 06:53:32;;;;;;;;;;;20.20;99.90;;;;;;5102608;28;19966;-68
2022/08/19 06:56:02;;;;;;;;;;;20.20;99.90;;;;;;5102892;28;20111;-68
2022/08/19 06:58:31;;;;;;;;;;;20.20;99.90;;;;;;5103474;28;19920;-68
2022/08/19 07:01:01;;;;;;;;;;;20.20;99.90;;;;;;5103148;28;19920;-68
2022/08/19 07:03:30;;;;;;;;;;;20.20;99.90;;;;;;5102768;28;19985;-68
2022/08/19 07:05:57;;;;;;;;;;;20.30;99.90;;;;;;5102889;28;19920;-68
2022/08/19 07:08:26;;;;;;;;;;;20.30;99.90;;;;;;5102879;28;19920;-68
2022/08/19 07:10:53;;;;;;;;;;;20.30;99.90;;;;;;5102841;28;20232;-68
2022/08/19 07:13:21;;;;;;;;;;;20.40;99.90;;;;;;5102446;28;19920;-68
2022/08/19 07:15:50;;;;;;;;;;;20.40;99.90;;;;;;5102777;28;20224;-68
2022/08/19 07:18:18;;;;;;;;;;;20.40;99.90;;;;;;5103034;28;19920;-68
2022/08/19 07:20:45;;;;;;;;;;;20.30;99.90;;;;;;5102849;28;19970;-68
2022/08/19 07:23:11;;;;;;;;;;;20.40;99.90;;;;;;5102247;28;19927;-68
2022/08/19 07:25:38;;;;;;;;;;;20.30;99.90;;;;;;5102761;28;20156;-68
2022/08/19 07:28:07;;;;;;;;;;;20.30;99.90;;;;;;5105507;28;20184;-68
2022/08/19 07:30:36;;;;;;;;;;;20.30;99.90;;;;;;5106432;28;19927;-68
2022/08/19 07:33:03;;;;;;;;;;;20.40;99.90;;;;;;5105930;28;19987;-68
2022/08/19 07:35:31;;;;;;;;;;;20.40;99.90;;;;;;5106088;28;19926;-68
2022/08/19 07:38:02;;;;;;;;;;;20.40;99.90;;;;;;5106421;28;19927;-68
2022/08/19 07:40:29;;;;;;;;;;;20.50;99.90;;;;;;5106319;28;20115;-68
2022/08/19 07:42:56;;;;;;;;;;;20.50;99.90;;;;;;5105911;28;19983;-68
2022/08/19 07:45:23;;;;;;;;;;;20.50;99.90;;;;;;5106019;28;19956;-68
2022/08/19 07:47:50;;;;;;;;;;;20.50;99.90;;;;;;5106051;28;20115;-68
2022/08/19 07:50:19;;;;;;;;;;;20.50;99.90;;;;;;5105820;28;19958;-68
2022/08/19 07:52:47;;;;;;;;;;;20.60;99.90;;;;;;5105757;28;19959;-68
2022/08/19 07:55:13;;;;;;;;;;;20.50;99.90;;;;;;5105820;28;19919;-68
2022/08/19 07:57:40;;;;;;;;;;;20.60;99.90;;;;;;5105873;28;19979;-68
2022/08/19 08:00:07;;;;;;;;;;;20.60;99.90;;;;;;5105652;28;20254;-68
2022/08/19 08:02:34;;;;;;;;;;;20.50;99.90;;;;;;5105642;28;19928;-68
2022/08/19 08:10:30;;;;;;;;;;;20.50;99.90;;;;;;5105574;28;20238;-68
2022/08/19 08:12:57;;;;;;;;;;;20.50;99.90;;;;;;5105647;28;20007;-68
2022/08/19 08:15:23;;;;;;;;;;;20.50;99.90;;;;;;5105198;28;19932;-68
2022/08/19 08:17:50;;;;;;;;;;;20.50;99.90;;;;;;5105703;28;19991;-68
2022/08/19 08:20:17;;;;;;;;;;;20.50;99.90;;;;;;5105813;28;19955;-68
2022/08/19 08:25:30;;;;;;;;;;;20.40;99.90;;;;;;5105150;28;19923;-68
2022/08/19 08:27:59;;;;;;;;;;;20.40;99.90;;;;;;5105487;28;19958;-68
2022/08/19 08:30:26;;;;;;;;;;;20.40;99.90;;;;;;5105233;28;19986;-68
2022/08/19 08:32:53;;;;;;;;;;;20.30;99.90;;;;;;5105002;28;19942;-68
2022/08/19 08:35:21;;;;;;;;;;;20.20;99.90;;;;;;5105037;28;19947;-68
2022/08/19 08:37:49;;;;;;;;;;;20.20;99.90;;;;;;5105428;28;20163;-68
2022/08/19 08:40:19;;;;;;;;;;;20.20;99.90;;;;;;5105450;28;19920;-68
2022/08/19 08:42:51;;;;;;;;;;;20.30;99.90;;;;;;5104602;28;19999;-68
2022/08/19 08:45:18;;;;;;;;;;;20.30;99.90;;;;;;5104923;28;19924;-68
2022/08/19 08:47:47;;;;;;;;;;;20.30;99.90;;;;;;5104688;28;19923;-68
2022/08/19 08:50:16;;;;;;;;;;;20.40;99.90;;;;;;5104693;28;19983;-68
2022/08/19 08:52:45;;;;;;;;;;;20.40;99.90;;;;;;5104117;28;20179;-67
2022/08/19 08:55:14;;;;;;;;;;;20.40;99.90;;;;;;5104593;28;19962;-68
2022/08/19 08:57:54;;;;;;;;;;;20.40;99.90;;;;;;5104729;28;19920;-68
2022/08/19 09:00:24;;;;;;;;;;;20.40;99.90;;;;;;5104563;28;19920;-67
2022/08/19 09:02:51;;;;;;;;;;;20.30;99.90;;;;;;5104243;28;19921;-68
2022/08/19 09:05:18;;;;;;;;;;;20.30;99.90;;;;;;5104459;28;19995;-68
2022/08/19 09:07:47;;;;;;;;;;;20.40;99.90;;;;;;5104503;28;19920;-68
2022/08/19 09:10:18;;;;;;;;;;;20.40;99.90;;;;;;5104395;28;19982;-68
2022/08/19 09:12:49;;;;;;;;;;;20.50;99.90;;;;;;5104123;28;19983;-68
2022/08/19 09:15:19;;;;;;;;;;;20.50;99.90;;;;;;5104256;28;19920;-68
2022/08/19 09:17:47;;;;;;;;;;;20.40;99.90;;;;;;5104296;28;19987;-68
2022/08/19 09:20:16;;;;;;;;;;;20.40;99.90;;;;;;5104604;28;19955;-68
2022/08/19 09:22:44;;;;;;;;;;;20.50;99.90;;;;;;5103972;28;19920;-68
2022/08/19 09:25:12;;;;;;;;;;;20.50;99.90;;;;;;5104174;28;19924;-68
2022/08/19 09:27:40;;;;;;;;;;;20.60;99.90;;;;;;5104184;28;19983;-68
2022/08/19 09:30:08;;;;;;;;;;;20.60;99.90;;;;;;5104001;28;19920;-68
2022/08/19 09:32:35;;;;;;;;;;;20.60;99.90;;;;;;5104236;28;19991;-68
2022/08/19 09:35:03;;;;;;;;;;;20.70;99.90;;;;;;5103698;28;19983;-68
2022/08/19 09:37:30;;;;;;;;;;;20.70;99.90;;;;;;5104059;28;19983;-68
2022/08/19 09:39:57;;;;;;;;;;;20.70;99.90;;;;;;5103987;28;19920;-68
2022/08/19 09:42:24;;;;;;;;;;;20.80;99.90;;;;;;5103809;28;19928;-68
2022/08/19 09:44:50;;;;;;;;;;;20.80;99.90;;;;;;5103922;28;19927;-68
2022/08/19 09:47:17;;;;;;;;;;;20.80;99.90;;;;;;5103927;28;19951;-68
2022/08/19 09:49:44;;;;;;;;;;;20.80;99.90;;;;;;5103222;28;20223;-68
2022/08/19 09:52:12;;;;;;;;;;;20.90;99.90;;;;;;5103639;28;19983;-68
2022/08/19 09:54:39;;;;;;;;;;;20.90;99.90;;;;;;5103313;28;19983;-67
2022/08/19 09:57:06;;;;;;;;;;;21.00;99.90;;;;;;5103715;28;19982;-68
2022/08/19 09:59:33;;;;;;;;;;;21.00;99.90;;;;;;5103458;28;19991;-68
2022/08/19 10:01:59;;;;;;;;;;;21.10;99.90;;;;;;5103698;28;19920;-68
2022/08/19 10:05:47;;;;;;;;;;;21.10;99.90;;;;;;5103326;28;20092;-69
2022/08/19 10:07:15;;;;;;;;;;;21.10;99.90;;;;;;5102814;28;19920;-68
2022/08/19 10:09:41;;;;;;;;;;;21.20;99.90;;;;;;5103444;28;19985;-68
2022/08/19 10:12:08;;;;;;;;;;;21.20;99.90;;;;;;5103257;28;19959;-68
2022/08/19 10:14:35;;;;;;;;;;;21.30;99.90;;;;;;5103271;28;19920;-68
2022/08/19 10:17:03;;;;;;;;;;;21.30;99.90;;;;;;5103655;28;20169;-67
2022/08/19 10:19:32;;;;;;;;;;;21.30;99.90;;;;;;5103378;28;19920;-67
2022/08/19 10:21:58;;;;;;;;;;;21.30;99.90;;;;;;5102527;28;19989;-67
2022/08/19 10:24:27;;;;;;;;;;;21.20;99.90;;;;;;5103041;28;19959;-67
2022/08/19 10:26:54;;;;;;;;;;;21.20;99.90;;;;;;5103215;28;19928;-68
2022/08/19 10:29:21;;;;;;;;;;;21.20;99.90;;;;;;5103271;28;19927;-67
2022/08/19 10:31:48;;;;;;;;;;;21.20;99.90;;;;;;5103330;28;19991;-67
2022/08/19 10:34:14;;;;;;;;;;;21.20;99.90;;;;;;5102990;28;19924;-67
2022/08/19 10:36:41;;;;;;;;;;;21.20;99.90;;;;;;5103206;28;19927;-67
2022/08/19 10:39:09;;;;;;;;;;;21.30;99.90;;;;;;5103218;28;19960;-67
2022/08/19 10:41:38;;;;;;;;;;;21.30;99.90;;;;;;5103406;28;19951;-67
2022/08/19 10:44:06;;;;;;;;;;;21.30;99.90;;;;;;5103196;28;19950;-67
2022/08/19 10:46:34;;;;;;;;;;;21.30;99.90;;;;;;5103290;28;19920;-67
2022/08/19 10:49:01;;;;;;;;;;;21.20;99.90;;;;;;5103418;28;19920;-67
2022/08/19 10:54:12;;;;;;;;;;;21.10;99.90;;;;;;5102827;28;19927;-67
2022/08/19 10:56:51;;;;;;;;;;;21.10;99.90;;;;;;5103293;28;20003;-67
2022/08/19 10:59:19;;;;;;;;;;;21.10;99.90;;;;;;5103213;28;19986;-67
2022/08/19 11:01:46;;;;;;;;;;;21.00;99.90;;;;;;5103804;28;19920;-67
2022/08/19 11:04:13;;;;;;;;;;;21.10;99.90;;;;;;5106831;28;19991;-67
2022/08/19 11:06:41;;;;;;;;;;;21.00;99.90;;;;;;5106988;28;19927;-67
2022/08/19 11:09:08;;;;;;;;;;;21.10;99.90;;;;;;5107017;28;19932;-68
2022/08/19 11:11:39;;;;;;;;;;;21.10;99.90;;;;;;5106851;28;20173;-67
2022/08/19 11:14:07;;;;;;;;;;;21.20;99.90;;;;;;5106424;28;19991;-67
2022/08/19 11:16:33;;;;;;;;;;;21.20;99.90;;;;;;5106470;28;19983;-68
2022/08/19 11:19:00;;;;;;;;;;;21.30;99.90;;;;;;5106784;28;19983;-67
2022/08/19 11:21:28;;;;;;;;;;;21.20;99.90;;;;;;5106586;28;20261;-68
2022/08/19 11:23:56;;;;;;;;;;;21.20;99.90;;;;;;5106657;28;19983;-67
2022/08/19 11:26:24;;;;;;;;;;;21.20;99.90;;;;;;5106419;28;19920;-67
2022/08/19 11:28:52;;;;;;;;;;;21.20;99.90;;;;;;5106371;28;20250;-68
2022/08/19 11:31:21;;;;;;;;;;;21.30;99.90;;;;;;5106256;28;20270;-67
2022/08/19 11:33:50;;;;;;;;;;;21.20;99.90;;;;;;5105956;28;19983;-67
2022/08/19 11:36:17;;;;;;;;;;;21.20;99.90;;;;;;5106081;28;19920;-68
2022/08/19 11:38:44;;;;;;;;;;;21.20;99.90;;;;;;5106282;28;19959;-67
2022/08/19 11:41:11;;;;;;;;;;;21.20;99.90;;;;;;5106298;28;19928;-67
2022/08/19 11:43:39;;;;;;;;;;;21.20;99.90;;;;;;5105790;28;19974;-67
2022/08/19 11:46:07;;;;;;;;;;;21.20;99.90;;;;;;5105953;28;19987;-67
2022/08/19 11:48:35;;;;;;;;;;;21.20;99.90;;;;;;5106135;28;19920;-67
2022/08/19 11:51:05;;;;;;;;;;;21.20;99.90;;;;;;5106062;28;20280;-67
2022/08/19 11:53:32;;;;;;;;;;;21.20;99.90;;;;;;5105584;28;19928;-67
2022/08/19 11:55:59;;;;;;;;;;;21.20;99.90;;;;;;5105651;28;20152;-67
2022/08/19 11:58:26;;;;;;;;;;;21.10;99.90;;;;;;5106032;28;19988;-67
2022/08/19 12:00:53;;;;;;;;;;;21.10;99.90;;;;;;5105967;28;19962;-68
2022/08/19 12:03:20;;;;;;;;;;;21.10;99.90;;;;;;5105552;28;19983;-67
2022/08/19 12:05:48;;;;;;;;;;;21.10;99.90;;;;;;5105812;28;19920;-68
2022/08/19 12:08:15;;;;;;;;;;;21.10;99.90;;;;;;5105640;28;19923;-67
2022/08/19 12:10:42;;;;;;;;;;;21.10;99.90;;;;;;5105476;28;19920;-67
2022/08/19 12:13:09;;;;;;;;;;;21.10;99.90;;;;;;5105061;28;20161;-67
2022/08/19 12:15:36;;;;;;;;;;;21.10;99.90;;;;;;5105357;28;19930;-68
2022/08/19 12:18:04;;;;;;;;;;;21.10;99.90;;;;;;5105404;28;19944;-67
2022/08/19 12:20:30;;;;;;;;;;;21.10;99.90;;;;;;5105481;28;20131;-67
2022/08/19 12:22:59;;;;;;;;;;;21.10;99.90;;;;;;5105130;28;19920;-67
2022/08/19 12:25:26;;;;;;;;;;;21.10;99.90;;;;;;5105106;28;19920;-67
2022/08/19 12:27:52;;;;;;;;;;;21.10;99.90;;;;;;5105310;28;19927;-67
2022/08/19 12:30:19;;;;;;;;;;;21.10;99.90;;;;;;5105367;28;19920;-67
2022/08/19 12:32:45;;;;;;;;;;;21.10;99.90;;;;;;5104885;28;20212;-68
2022/08/19 12:35:12;;;;;;;;;;;21.10;99.90;;;;;;5104946;28;19927;-67
2022/08/19 12:37:41;;;;;;;;;;;21.10;99.90;;;;;;5105106;28;19956;-68
2022/08/19 12:40:11;;;;;;;;;;;21.00;99.90;;;;;;5105259;28;19979;-67
2022/08/19 12:42:42;;;;;;;;;;;21.00;99.90;;;;;;5105028;28;19920;-68
2022/08/19 12:45:09;;;;;;;;;;;21.00;99.90;;;;;;5104836;28;20123;-68
2022/08/19 12:47:35;;;;;;;;;;;21.00;99.90;;;;;;5105469;28;19920;-68
2022/08/19 12:50:02;;;;;;;;;;;21.00;99.90;;;;;;5104865;28;19920;-68
2022/08/19 12:52:29;;;;;;;;;;;20.90;99.90;;;;;;5104578;28;19928;-67
2022/08/19 12:54:57;;;;;;;;;;;20.80;99.90;;;;;;5104562;28;20235;-67
2022/08/19 12:57:26;;;;;;;;;;;20.80;99.90;;;;;;5104691;28;20211;-67
2022/08/19 12:59:53;;;;;;;;;;;20.80;99.90;;;;;;5105198;28;19947;-67
2022/08/19 13:02:21;;;;;;;;;;;20.70;99.90;;;;;;5104574;28;19920;-67
2022/08/19 13:04:47;;;;;;;;;;;20.70;99.90;;;;;;5104183;28;19927;-68
2022/08/19 13:07:14;;;;;;;;;;;20.70;99.90;;;;;;5104598;28;19920;-67
2022/08/19 13:09:42;;;;;;;;;;;20.60;99.90;;;;;;5104622;28;19954;-67
2022/08/19 13:12:12;;;;;;;;;;;20.50;99.90;;;;;;5104530;28;19920;-68
2022/08/19 13:14:41;;;;;;;;;;;20.50;99.90;;;;;;5103981;28;19947;-67
2022/08/19 13:17:08;;;;;;;;;;;20.40;99.90;;;;;;5104316;28;19920;-67
2022/08/19 13:19:37;;;;;;;;;;;20.40;99.90;;;;;;5104248;28;20147;-67
2022/08/19 13:22:03;;;;;;;;;;;20.40;99.90;;;;;;5104530;28;20219;-67
2022/08/19 13:24:30;;;;;;;;;;;20.40;99.90;;;;;;5103222;28;19987;-67
2022/08/19 13:26:56;;;;;;;;;;;20.30;99.90;;;;;;5104126;28;19987;-68
2022/08/19 13:34:53;;;;;;;;;;;20.20;99.90;;;;;;5103826;28;19927;-67
2022/08/19 13:37:40;;;;;;;;;;;20.20;99.90;;;;;;5104088;28;19987;-68
2022/08/19 13:40:07;;;;;;;;;;;20.20;99.90;;;;;;5103815;28;19920;-67
2022/08/19 13:42:33;;;;;;;;;;;20.20;99.90;;;;;;5103911;28;19920;-67
2022/08/19 13:45:00;;;;;;;;;;;20.20;99.90;;;;;;5103793;28;19920;-68
2022/08/19 13:47:28;;;;;;;;;;;20.30;99.90;;;;;;5103703;28;20283;-67
2022/08/19 13:49:55;;;;;;;;;;;20.30;99.90;;;;;;5103808;28;19956;-68
2022/08/19 13:52:21;;;;;;;;;;;20.30;99.90;;;;;;5103852;28;19955;-67
2022/08/19 13:54:48;;;;;;;;;;;20.30;99.90;;;;;;5103263;28;19955;-68
2022/08/19 13:57:15;;;;;;;;;;;20.30;99.90;;;;;;5103870;28;19955;-68
2022/08/19 13:59:41;;;;;;;;;;;20.30;99.90;;;;;;5103983;28;19920;-68
2022/08/19 14:02:08;;;;;;;;;;;20.30;99.90;;;;;;5103533;28;19999;-68
2022/08/19 14:04:37;;;;;;;;;;;20.30;99.90;;;;;;5103395;28;19931;-68
2022/08/19 14:07:04;;;;;;;;;;;20.30;99.90;;;;;;5103552;28;20204;-68
2022/08/19 14:09:30;;;;;;;;;;;20.30;99.90;;;;;;5103338;28;19921;-67
2022/08/19 14:11:57;;;;;;;;;;;20.30;99.90;;;;;;5103771;28;19920;-68
2022/08/19 14:14:24;;;;;;;;;;;20.30;99.90;;;;;;5103535;28;19951;-67
2022/08/19 14:16:51;;;;;;;;;;;20.20;99.90;;;;;;5103257;28;20179;-68
2022/08/19 14:19:19;;;;;;;;;;;20.20;99.90;;;;;;5103585;28;19973;-68
2022/08/19 14:21:47;;;;;;;;;;;20.20;99.90;;;;;;5103386;28;19974;-68
2022/08/19 14:24:13;;;;;;;;;;;20.20;99.90;;;;;;5103079;28;20123;-68
2022/08/19 14:26:40;;;;;;;;;;;20.20;99.90;;;;;;5103514;28;20262;-68
2022/08/19 14:29:06;;;;;;;;;;;20.10;99.90;;;;;;5103517;28;19988;-68
2022/08/19 14:31:33;;;;;;;;;;;20.10;99.90;;;;;;5103340;28;20259;-68
2022/08/19 14:34:00;;;;;;;;;;;20.10;99.90;;;;;;5103076;28;20161;-68
2022/08/19 14:36:26;;;;;;;;;;;20.00;99.90;;;;;;5105562;28;19974;-68
2022/08/19 14:38:54;;;;;;;;;;;20.00;99.90;;;;;;5107709;28;19920;-69
2022/08/19 14:41:22;;;;;;;;;;;20.00;99.90;;;;;;5107344;28;20267;-68
2022/08/19 14:43:50;;;;;;;;;;;20.00;99.90;;;;;;5107215;28;19958;-68
2022/08/19 14:46:19;;;;;;;;;;;19.90;99.90;;;;;;5107098;28;20252;-68